Time;durP1;ratioP1;P1;durP2;ratioP2;P2;SDS_P1;SDS_P2;PMS_P1;PMS_P2;Temp;Humidity;BMP_temperature;BMP_pressure;BME280_temperature;BME280_humidity;BME280_pressure;Samples;Min_cycle;Max_cycle;Signal;HPM_P1;HPM_P2
2024/01/16 00:00:14;;;;;;;;;88.67;68.33;;;;;;;;6489384;46;8873;-62
2024/01/16 00:06:16;;;;;;;;;81.67;64.33;;;;;;;;6489700;47;8974;-60
2024/01/16 00:12:19;;;;;;;;;86.67;67.33;;;;;;;;6489649;39;8853;-60
2024/01/16 00:18:21;;;;;;;;;94.33;74.33;;;;;;;;6490725;39;8896;-59
2024/01/16 00:24:23;;;;;;;;;78.67;63.33;;;;;;;;6490210;39;8933;-61
2024/01/16 00:30:26;;;;;;;;;92.00;72.00;;;;;;;;6489299;31;8979;-61
2024/01/16 00:36:28;;;;;;;;;88.00;68.67;;;;;;;;6489842;39;8876;-60
2024/01/16 00:42:31;;;;;;;;;80.00;63.00;;;;;;;;6489645;39;8918;-60
2024/01/16 00:48:36;;;;;;;;;69.75;54.00;;;;;;;;6489995;31;8916;-61
2024/01/16 00:54:41;;;;;;;;;64.50;45.25;;;;;;;;6490141;39;8849;-59
2024/01/16 01:00:43;;;;;;;;;63.50;52.75;;;;;;;;6489583;46;8893;-59
2024/01/16 01:06:45;;;;;;;;;63.00;51.25;;;;;;;;6490192;31;9000;-61
2024/01/16 01:12:48;;;;;;;;;49.25;43.00;;;;;;;;6489096;47;8881;-59
2024/01/16 01:18:51;;;;;;;;;61.75;49.75;;;;;;;;6490781;39;8948;-59
2024/01/16 01:24:54;;;;;;;;;61.25;49.25;;;;;;;;6491205;39;8929;-60
2024/01/16 01:30:57;;;;;;;;;59.25;48.75;;;;;;;;6491738;46;8865;-60
2024/01/16 01:37:00;;;;;;;;;64.50;53.50;;;;;;;;6492390;39;8927;-59
2024/01/16 01:43:25;;;;;;;;;71.00;57.00;;;;;;;;6491531;39;8877;-60
2024/01/16 01:49:28;;;;;;;;;72.75;54.50;;;;;;;;6492468;39;9047;-59
2024/01/16 01:55:31;;;;;;;;;67.00;53.25;;;;;;;;6491255;46;8861;-59
2024/01/16 02:01:34;;;;;;;;;66.75;53.25;;;;;;;;6492347;39;8907;-60
2024/01/16 02:07:37;;;;;;;;;56.00;45.50;;;;;;;;6492434;31;8900;-59
2024/01/16 02:13:39;;;;;;;;;75.00;59.00;;;;;;;;6491624;39;8911;-60
2024/01/16 02:19:42;;;;;;;;;75.00;56.00;;;;;;;;6490667;46;9072;-60
2024/01/16 02:25:44;;;;;;;;;56.00;48.00;;;;;;;;6491689;31;8999;-59
2024/01/16 02:31:47;;;;;;;;;49.25;43.50;;;;;;;;6491361;39;8912;-59
2024/01/16 02:37:49;;;;;;;;;58.00;49.50;;;;;;;;6492108;39;8851;-60
2024/01/16 02:49:52;;;;;;;;;61.75;48.50;;;;;;;;6492380;46;8958;-60
2024/01/16 02:55:58;;;;;;;;;59.00;47.25;;;;;;;;6491502;39;8919;-59
2024/01/16 03:02:03;;;;;;;;;59.50;46.75;;;;;;;;6491774;31;8912;-61
2024/01/16 03:08:07;;;;;;;;;51.50;43.75;;;;;;;;6491537;31;8939;-60
2024/01/16 03:14:09;;;;;;;;;44.00;41.25;;;;;;;;6490083;39;8888;-60
2024/01/16 03:20:16;;;;;;;;;51.50;43.75;;;;;;;;6490419;46;8857;-61
2024/01/16 03:26:18;;;;;;;;;44.00;41.75;;;;;;;;6490619;46;8987;-60
2024/01/16 03:32:21;;;;;;;;;45.75;41.50;;;;;;;;6494202;36;8880;-59
2024/01/16 03:38:23;;;;;;;;;46.00;37.25;;;;;;;;6490122;39;8880;-58
2024/01/16 03:44:25;;;;;;;;;37.50;37.00;;;;;;;;6489660;46;8878;-60
2024/01/16 03:50:27;;;;;;;;;39.50;33.25;;;;;;;;6489929;39;8953;-61
2024/01/16 03:56:30;;;;;;;;;47.75;40.00;;;;;;;;6490371;39;8927;-59
2024/01/16 04:02:33;;;;;;;;;37.25;36.00;;;;;;;;6489375;46;8936;-59
2024/01/16 04:08:38;;;;;;;;;43.00;39.33;;;;;;;;6489486;46;8916;-61
2024/01/16 04:14:41;;;;;;;;;32.50;31.75;;;;;;;;6488302;31;8983;-61
2024/01/16 04:20:43;;;;;;;;;38.50;33.75;;;;;;;;6490903;31;8856;-61
2024/01/16 04:26:45;;;;;;;;;39.50;29.75;;;;;;;;6488769;46;8873;-61
2024/01/16 04:32:48;;;;;;;;;55.00;44.50;;;;;;;;6490045;39;8907;-59
2024/01/16 04:38:52;;;;;;;;;50.25;43.25;;;;;;;;6490475;39;9483;-60
2024/01/16 04:44:54;;;;;;;;;58.75;47.25;;;;;;;;6489222;39;8880;-60
2024/01/16 04:50:56;;;;;;;;;48.75;44.75;;;;;;;;6560729;36;256161;-60
2024/01/16 04:56:57;;;;;;;;;53.00;43.00;;;;;;;;6490310;39;8946;-60
2024/01/16 05:03:05;;;;;;;;;46.00;42.00;;;;;;;;6462181;39;8982;-62
2024/01/16 05:09:12;;;;;;;;;52.50;45.25;;;;;;;;6490544;39;9620;-61
2024/01/16 05:15:15;;;;;;;;;45.25;36.50;;;;;;;;6489651;47;8965;-62
